createdAt,value
2022-10-01T00:01:15.483Z,72.35
2022-10-01T00:03:42.741Z,72.46
2022-10-01T00:06:12.224Z,72.35
2022-10-01T00:08:41.677Z,73.13
2022-10-01T00:11:18.063Z,72.55
2022-10-01T00:13:44.826Z,73.16
2022-10-01T00:16:14.410Z,72.75
2022-10-01T00:18:43.297Z,72.39
2022-10-01T00:21:13.250Z,72.87
2022-10-01T00:23:40.501Z,73.16
2022-10-01T00:26:13.022Z,73.93
2022-10-01T00:28:41.250Z,73.86
2022-10-01T00:31:09.820Z,74.09
2022-10-01T00:33:36.885Z,74.30
2022-10-01T00:36:05.048Z,75.78
2022-10-01T00:38:31.941Z,75.18
2022-10-01T00:40:58.442Z,75.19
2022-10-01T00:43:32.030Z,76.24
2022-10-01T00:46:16.956Z,76.07
2022-10-01T00:48:55.037Z,75.98
2022-10-01T00:51:22.191Z,76.22
2022-10-01T00:53:48.810Z,76.29
2022-10-01T00:56:15.453Z,75.39
2022-10-01T00:58:42.837Z,73.70
2022-10-01T01:01:09.388Z,74.23
2022-10-01T01:03:35.958Z,74.85
2022-10-01T01:06:02.426Z,76.59
2022-10-01T01:08:29.209Z,75.52
2022-10-01T01:11:03.819Z,76.55
2022-10-01T01:13:37.002Z,75.94
2022-10-01T01:16:25.649Z,75.66
2022-10-01T01:19:08.677Z,77.50
2022-10-01T01:21:46.974Z,77.88
2022-10-01T01:24:32.015Z,79.40
2022-10-01T01:27:20.132Z,81.56
2022-10-01T01:30:13.992Z,82.64
2022-10-01T01:32:52.482Z,81.57
2022-10-01T01:35:33.891Z,80.56
2022-10-01T01:38:34.900Z,80.67
2022-10-01T01:41:04.944Z,80.65
2022-10-01T01:43:37.812Z,80.11
2022-10-01T01:46:08.540Z,78.91
2022-10-01T01:48:39.322Z,79.09
2022-10-01T01:51:25.775Z,78.14
2022-10-01T01:53:53.789Z,79.20
2022-10-01T01:56:20.586Z,79.28
2022-10-01T01:58:47.399Z,77.31
2022-10-01T02:01:39.862Z,78.61
2022-10-01T02:04:23.163Z,80.76
2022-10-01T02:06:58.141Z,80.50
2022-10-01T02:09:36.992Z,81.87
2022-10-01T02:12:18.347Z,81.54
2022-10-01T02:15:20.671Z,81.14
2022-10-01T02:18:18.318Z,80.59
2022-10-01T02:21:11.209Z,79.02
2022-10-01T02:23:48.733Z,79.33
2022-10-01T02:26:20.925Z,81.53
2022-10-01T02:28:51.859Z,80.05
2022-10-01T02:31:22.021Z,79.44
2022-10-01T02:33:53.373Z,81.74
2022-10-01T02:36:25.067Z,81.32
2022-10-01T02:38:55.302Z,81.16
2022-10-01T02:41:28.807Z,81.93
2022-10-01T02:44:10.189Z,82.30
2022-10-01T02:46:56.362Z,81.32
2022-10-01T02:49:25.462Z,82.52
2022-10-01T02:52:10.200Z,82.65
2022-10-01T02:54:42.607Z,82.47
2022-10-01T02:57:09.052Z,83.81
2022-10-01T02:59:35.600Z,82.98
2022-10-01T03:02:02.189Z,84.08
2022-10-01T03:04:28.698Z,85.24
2022-10-01T03:06:55.210Z,83.92
2022-10-01T03:09:21.656Z,81.24
2022-10-01T03:11:48.123Z,79.48
2022-10-01T03:14:14.571Z,77.67
2022-10-01T03:16:41.053Z,77.16
2022-10-01T03:19:07.518Z,78.21
2022-10-01T03:21:34.250Z,76.98
2022-10-01T03:24:00.906Z,77.10
2022-10-01T03:26:27.344Z,76.30
2022-10-01T03:28:53.832Z,77.77
2022-10-01T03:31:20.325Z,77.19
2022-10-01T03:33:46.835Z,78.52
2022-10-01T03:36:13.258Z,78.63
2022-10-01T03:38:39.807Z,79.30
2022-10-01T03:41:06.340Z,78.05
2022-10-01T03:43:32.803Z,77.95
2022-10-01T03:45:59.418Z,80.93
2022-10-01T03:48:25.911Z,79.80
2022-10-01T03:50:57.660Z,79.74
2022-10-01T03:53:25.492Z,81.20
2022-10-01T03:55:51.980Z,81.77
2022-10-01T03:58:18.913Z,81.01
2022-10-01T04:00:47.212Z,81.86
2022-10-01T04:03:17.733Z,83.23
2022-10-01T04:05:45.667Z,81.67
2022-10-01T04:08:13.706Z,83.77
2022-10-01T04:10:41.425Z,83.28
2022-10-01T04:13:28.020Z,83.92
2022-10-01T04:15:54.567Z,82.23
2022-10-01T04:18:21.036Z,80.90
2022-10-01T04:20:48.491Z,80.72
2022-10-01T04:23:15.765Z,79.64
2022-10-01T04:25:42.414Z,79.05
2022-10-01T04:28:11.630Z,78.43
2022-10-01T04:30:41.354Z,79.41
2022-10-01T04:33:13.898Z,78.97
2022-10-01T04:35:40.650Z,77.70
2022-10-01T04:38:11.763Z,79.96
2022-10-01T04:40:38.757Z,78.55
2022-10-01T04:43:06.732Z,80.31
2022-10-01T04:45:33.183Z,81.21
2022-10-01T04:47:59.692Z,80.56
2022-10-01T04:50:27.536Z,79.28
2022-10-01T04:52:54.577Z,79.23
2022-10-01T04:55:22.707Z,77.41
2022-10-01T04:57:49.591Z,77.66
2022-10-01T05:00:21.654Z,77.35
2022-10-01T05:02:50.262Z,78.30
2022-10-01T05:05:19.124Z,78.20
2022-10-01T05:07:46.020Z,80.03
2022-10-01T05:10:19.035Z,79.24
2022-10-01T05:12:46.480Z,78.09
2022-10-01T05:15:14.688Z,80.26
2022-10-01T05:17:41.127Z,84.71
2022-10-01T05:20:10.038Z,82.29
2022-10-01T05:22:36.518Z,81.88
2022-10-01T05:25:03.069Z,83.98
2022-10-01T05:27:30.948Z,81.97
2022-10-01T05:29:57.416Z,82.78
2022-10-01T05:32:23.904Z,83.25
2022-10-01T05:34:53.569Z,81.17
2022-10-01T05:37:20.594Z,80.56
2022-10-01T05:39:47.228Z,80.52
2022-10-01T05:42:13.937Z,81.02
2022-10-01T05:44:40.382Z,81.10
2022-10-01T05:47:07.648Z,80.88
2022-10-01T05:49:34.262Z,80.08
2022-10-01T05:52:01.014Z,81.35
2022-10-01T05:54:28.415Z,81.31
2022-10-01T05:56:55.995Z,81.23
2022-10-01T05:59:22.432Z,81.71
2022-10-01T06:01:49.003Z,80.31
2022-10-01T06:04:15.608Z,81.36
2022-10-01T06:06:42.038Z,81.33
2022-10-01T06:09:08.805Z,83.04
2022-10-01T06:11:38.856Z,83.42
2022-10-01T06:14:06.177Z,83.80
2022-10-01T06:16:32.671Z,84.75
2022-10-01T06:18:59.212Z,85.78
2022-10-01T06:21:27.068Z,86.70
2022-10-01T06:23:54.141Z,86.12
2022-10-01T06:26:20.952Z,85.73
2022-10-01T06:28:51.883Z,83.52
2022-10-01T06:31:19.128Z,84.20
2022-10-01T06:33:45.728Z,86.16
2022-10-01T06:36:12.174Z,86.15
2022-10-01T06:38:38.641Z,84.65
2022-10-01T06:41:05.217Z,85.22
2022-10-01T06:43:33.056Z,86.04
2022-10-01T06:46:03.996Z,86.40
2022-10-01T06:48:31.280Z,83.93
2022-10-01T06:50:58.484Z,82.66
2022-10-01T06:53:26.641Z,82.98
2022-10-01T06:55:53.096Z,81.36
2022-10-01T06:58:22.133Z,81.00
2022-10-01T07:00:50.161Z,81.76
2022-10-01T07:03:21.933Z,83.86
2022-10-01T07:05:49.867Z,81.75
2022-10-01T07:08:17.416Z,80.30
2022-10-01T07:10:44.247Z,79.65
2022-10-01T07:13:16.936Z,79.81
2022-10-01T07:15:44.214Z,79.98
2022-10-01T07:18:12.148Z,78.75
2022-10-01T07:20:40.087Z,80.06
2022-10-01T07:23:10.643Z,79.16
2022-10-01T07:25:38.682Z,79.58
2022-10-01T07:28:08.345Z,78.18
2022-10-01T07:30:35.328Z,77.47
2022-10-01T07:33:01.812Z,77.99
2022-10-01T07:35:28.407Z,75.43
2022-10-01T07:37:54.913Z,75.36
2022-10-01T07:40:21.601Z,74.56
2022-10-01T07:42:55.853Z,74.09
2022-10-01T07:45:23.742Z,75.77
2022-10-01T07:47:54.465Z,78.79
2022-10-01T07:50:21.201Z,79.87
2022-10-01T07:52:55.216Z,80.34
2022-10-01T07:55:24.512Z,80.28
2022-10-01T07:57:53.025Z,81.68
2022-10-01T08:00:20.967Z,82.74
2022-10-01T08:02:49.669Z,83.45
2022-10-01T08:05:17.569Z,82.94
2022-10-01T08:07:45.576Z,83.71
2022-10-01T08:10:12.966Z,83.37
2022-10-01T08:12:39.964Z,84.81
2022-10-01T08:15:07.205Z,84.87
2022-10-01T08:17:34.072Z,84.72
2022-10-01T08:20:01.035Z,85.78
2022-10-01T08:22:27.558Z,85.94
2022-10-01T08:24:54.014Z,86.57
2022-10-01T08:27:20.647Z,87.24
2022-10-01T08:29:47.182Z,87.75
2022-10-01T08:32:13.757Z,87.80
2022-10-01T08:34:40.420Z,88.77
2022-10-01T08:37:06.896Z,89.04
2022-10-01T08:39:33.358Z,87.25
2022-10-01T08:42:25.941Z,87.87
2022-10-01T08:44:53.419Z,87.82
2022-10-01T08:47:29.274Z,87.94
2022-10-01T08:50:27.301Z,88.44
2022-10-01T08:53:04.195Z,88.89
2022-10-01T08:55:34.200Z,89.63
2022-10-01T08:58:07.021Z,90.36
2022-10-01T09:00:39.393Z,89.30
2022-10-01T09:03:11.843Z,90.11
2022-10-01T09:06:04.539Z,90.20
2022-10-01T09:09:17.312Z,91.34
2022-10-01T09:11:49.758Z,91.87
2022-10-01T09:14:45.357Z,91.82
2022-10-01T09:17:43.801Z,90.46
2022-10-01T09:20:33.279Z,90.57
2022-10-01T09:23:28.504Z,89.24
2022-10-01T09:25:57.324Z,88.08
2022-10-01T09:28:29.089Z,87.79
2022-10-01T09:31:10.998Z,87.34
2022-10-01T09:33:42.485Z,88.32
2022-10-01T09:36:26.527Z,86.88
2022-10-01T09:39:18.688Z,87.59
2022-10-01T09:41:45.705Z,87.42
2022-10-01T09:44:19.012Z,84.61
2022-10-01T09:46:46.907Z,85.26
2022-10-01T09:49:31.562Z,85.09
2022-10-01T09:52:05.728Z,84.33
2022-10-01T09:54:42.961Z,83.25
2022-10-01T09:57:20.594Z,82.33
2022-10-01T10:00:08.082Z,82.27
2022-10-01T10:02:48.407Z,80.53
2022-10-01T10:05:21.136Z,81.13
2022-10-01T10:07:53.838Z,81.53
2022-10-01T10:10:30.443Z,80.59
2022-10-01T10:13:04.714Z,79.78
2022-10-01T10:15:31.869Z,79.03
2022-10-01T10:18:08.869Z,77.89
2022-10-01T10:20:41.806Z,76.86
2022-10-01T10:23:09.360Z,77.75
2022-10-01T10:25:35.874Z,77.49
2022-10-01T10:28:02.458Z,77.44
2022-10-01T10:30:29.528Z,76.88
2022-10-01T10:33:05.344Z,77.47
2022-10-01T10:35:32.170Z,78.08
2022-10-01T10:37:59.065Z,78.25
2022-10-01T10:40:42.366Z,78.25
2022-10-01T10:43:22.255Z,77.61
2022-10-01T10:45:52.474Z,78.23
2022-10-01T10:48:19.116Z,78.86
2022-10-01T10:50:46.346Z,78.68
2022-10-01T10:53:21.695Z,78.63
2022-10-01T10:56:04.502Z,78.38
2022-10-01T10:58:33.682Z,78.20
2022-10-01T11:01:14.859Z,78.81
2022-10-01T11:03:50.129Z,78.76
2022-10-01T11:06:18.035Z,77.98
2022-10-01T11:08:47.659Z,78.59
2022-10-01T11:11:38.331Z,78.99
2022-10-01T11:14:42.868Z,79.60
2022-10-01T11:17:27.683Z,78.15
2022-10-01T11:20:33.946Z,78.30
2022-10-01T11:23:20.125Z,78.97
2022-10-01T11:26:08.748Z,79.34
2022-10-01T11:28:51.753Z,79.86
2022-10-01T11:31:30.424Z,79.56
2022-10-01T11:34:37.262Z,79.13
2022-10-01T11:37:27.719Z,77.53
2022-10-01T11:39:59.331Z,78.46
2022-10-01T11:42:34.442Z,78.69
2022-10-01T11:45:15.706Z,79.40
2022-10-01T11:47:53.642Z,79.67
2022-10-01T11:50:22.823Z,81.65
2022-10-01T11:53:13.488Z,82.34
2022-10-01T11:55:56.159Z,81.81
2022-10-01T11:58:38.090Z,81.47
2022-10-01T12:01:15.275Z,81.06
2022-10-01T12:03:53.784Z,82.30
2022-10-01T12:06:34.286Z,81.67
2022-10-01T12:09:46.326Z,82.02
2022-10-01T12:12:40.190Z,82.66
2022-10-01T12:15:18.571Z,81.89
2022-10-01T12:18:03.222Z,82.85
2022-10-01T12:20:43.285Z,82.60
2022-10-01T12:23:30.630Z,82.76
2022-10-01T12:26:06.074Z,83.40
2022-10-01T12:28:56.688Z,84.06
2022-10-01T12:31:55.358Z,84.70
2022-10-01T12:34:30.580Z,86.39
2022-10-01T12:37:17.577Z,87.42
2022-10-01T12:40:15.409Z,86.09
2022-10-01T12:43:12.251Z,86.87
2022-10-01T12:46:10.040Z,87.43
2022-10-01T12:48:42.143Z,88.21
2022-10-01T12:51:33.416Z,88.36
2022-10-01T12:54:18.343Z,89.14
2022-10-01T12:57:25.658Z,89.61
2022-10-01T13:00:05.480Z,91.26
2022-10-01T13:03:04.750Z,91.58
2022-10-01T13:06:00.281Z,91.46
2022-10-01T13:08:58.261Z,94.27
2022-10-01T13:12:09.291Z,95.88
2022-10-01T13:14:36.267Z,96.83
2022-10-01T13:17:13.762Z,99.19
2022-10-01T13:19:57.491Z,99.00
2022-10-01T13:23:11.811Z,99.78
2022-10-01T13:26:07.194Z,98.10
2022-10-01T13:29:08.028Z,100.00
2022-10-01T13:31:59.351Z,98.04
2022-10-01T13:34:41.350Z,98.26
2022-10-01T13:37:12.161Z,97.92
2022-10-01T13:39:39.679Z,98.02
2022-10-01T13:42:06.214Z,98.62
2022-10-01T13:44:35.549Z,99.16
2022-10-01T13:47:07.570Z,98.13
2022-10-01T13:49:37.409Z,99.16
2022-10-01T13:52:04.780Z,100.00
2022-10-01T13:54:45.009Z,100.00
2022-10-01T13:57:36.393Z,100.00
2022-10-01T14:00:22.169Z,100.00
2022-10-01T14:03:28.952Z,100.00
2022-10-01T14:06:02.037Z,100.00
2022-10-01T14:08:37.545Z,100.00
2022-10-01T14:11:12.800Z,100.00
2022-10-01T14:13:47.418Z,100.00
2022-10-01T14:16:16.006Z,100.00
2022-10-01T14:18:48.774Z,100.00
2022-10-01T14:21:40.557Z,100.00
2022-10-01T14:24:27.608Z,99.56
2022-10-01T14:27:02.343Z,99.74
2022-10-01T14:29:34.594Z,98.60
2022-10-01T14:32:35.046Z,98.93
2022-10-01T14:35:25.488Z,100.00
2022-10-01T14:37:59.157Z,100.00
2022-10-01T14:40:25.907Z,100.00
2022-10-01T14:43:00.573Z,100.00
2022-10-01T14:45:28.573Z,100.00
2022-10-01T14:48:06.909Z,100.00
2022-10-01T14:50:37.697Z,100.00
2022-10-01T14:53:06.078Z,100.00
2022-10-01T14:55:35.013Z,100.00
2022-10-01T14:58:01.792Z,100.00
2022-10-01T15:00:30.866Z,100.00
2022-10-01T15:03:14.366Z,100.00
2022-10-01T15:05:43.247Z,100.00
2022-10-01T15:08:40.582Z,100.00
2022-10-01T15:11:14.159Z,100.00
2022-10-01T15:13:44.491Z,100.00
2022-10-01T15:16:18.681Z,100.00
2022-10-01T15:18:50.644Z,100.00
2022-10-01T15:21:32.832Z,100.00
2022-10-01T15:23:59.557Z,100.00
2022-10-01T15:26:27.530Z,100.00
2022-10-01T15:29:26.305Z,100.00
2022-10-01T15:31:55.969Z,100.00
2022-10-01T15:34:25.786Z,100.00
2022-10-01T15:36:54.539Z,100.00
2022-10-01T15:39:37.279Z,100.00
2022-10-01T15:42:24.516Z,100.00
2022-10-01T15:45:20.183Z,100.00
2022-10-01T15:47:50.221Z,100.00
2022-10-01T15:50:27.310Z,100.00
2022-10-01T15:53:04.432Z,100.00
2022-10-01T15:55:41.877Z,100.00
2022-10-01T15:58:11.044Z,100.00
2022-10-01T16:01:01.292Z,100.00
2022-10-01T16:03:33.631Z,100.00
2022-10-01T16:06:02.751Z,100.00
2022-10-01T16:08:46.654Z,100.00
2022-10-01T16:11:13.066Z,100.00
2022-10-01T16:13:45.740Z,100.00
2022-10-01T16:16:29.942Z,100.00
2022-10-01T16:18:59.606Z,100.00
2022-10-01T16:21:26.811Z,100.00
2022-10-01T16:23:54.722Z,100.00
2022-10-01T16:26:26.983Z,100.00
2022-10-01T16:28:58.297Z,100.00
2022-10-01T16:31:25.611Z,100.00
2022-10-01T16:33:52.971Z,100.00
2022-10-01T16:36:20.960Z,100.00
2022-10-01T16:38:48.077Z,100.00
2022-10-01T16:41:22.063Z,100.00
2022-10-01T16:43:54.841Z,100.00
2022-10-01T16:46:21.674Z,100.00
2022-10-01T16:48:50.702Z,100.00
2022-10-01T16:51:18.076Z,100.00
2022-10-01T16:53:44.687Z,100.00
2022-10-01T16:56:11.991Z,100.00
2022-10-01T16:58:38.597Z,100.00
2022-10-01T17:01:09.691Z,100.00
2022-10-01T17:03:36.512Z,100.00
2022-10-01T17:06:03.518Z,100.00
2022-10-01T17:08:30.411Z,100.00
2022-10-01T17:11:00.365Z,100.00
2022-10-01T17:13:28.899Z,100.00
2022-10-01T17:15:55.853Z,100.00
2022-10-01T17:18:22.645Z,100.00
2022-10-01T17:20:49.396Z,100.00
2022-10-01T17:23:18.803Z,100.00
2022-10-01T17:25:46.405Z,100.00
2022-10-01T17:28:16.351Z,100.00
2022-10-01T17:30:45.018Z,100.00
2022-10-01T17:33:12.784Z,100.00
2022-10-01T17:35:44.874Z,100.00
2022-10-01T17:38:12.683Z,100.00
2022-10-01T17:40:40.128Z,100.00
2022-10-01T17:43:06.756Z,100.00
2022-10-01T17:45:33.259Z,100.00
2022-10-01T17:47:59.943Z,99.65
2022-10-01T17:50:26.454Z,98.04
2022-10-01T17:52:52.897Z,98.34
2022-10-01T17:55:19.387Z,97.36
2022-10-01T17:57:45.862Z,96.94
2022-10-01T18:00:12.834Z,96.68
2022-10-01T18:02:43.331Z,96.11
2022-10-01T18:05:11.687Z,97.12
2022-10-01T18:07:38.284Z,96.00
2022-10-01T18:10:07.441Z,96.10
2022-10-01T18:12:34.811Z,95.18
2022-10-01T18:15:01.839Z,95.66
2022-10-01T18:17:28.335Z,95.67
2022-10-01T18:19:54.791Z,97.11
2022-10-01T18:22:21.721Z,98.30
2022-10-01T18:24:48.177Z,97.93
2022-10-01T18:27:15.661Z,97.00
2022-10-01T18:29:42.212Z,96.84
2022-10-01T18:32:18.929Z,96.55
2022-10-01T18:34:49.935Z,95.35
2022-10-01T18:37:40.343Z,94.55
2022-10-01T18:40:12.328Z,95.00
2022-10-01T18:43:11.015Z,94.34
2022-10-01T18:45:49.173Z,93.81
2022-10-01T18:48:46.200Z,95.32
2022-10-01T18:51:21.622Z,100.00
2022-10-01T18:54:06.413Z,100.00
2022-10-01T18:56:35.804Z,100.00
2022-10-01T18:59:02.378Z,100.00
2022-10-01T19:01:40.636Z,100.00
2022-10-01T19:04:13.040Z,100.00
2022-10-01T19:06:54.130Z,100.00
2022-10-01T19:09:29.535Z,100.00
2022-10-01T19:12:45.413Z,100.00
2022-10-01T19:15:17.843Z,100.00
2022-10-01T19:18:07.296Z,100.00
2022-10-01T19:20:48.149Z,100.00
2022-10-01T19:23:26.342Z,100.00
2022-10-01T19:26:07.841Z,100.00
2022-10-01T19:29:10.717Z,100.00
2022-10-01T19:32:02.583Z,100.00
2022-10-01T19:34:42.666Z,100.00
2022-10-01T19:37:33.426Z,100.00
2022-10-01T19:40:14.586Z,100.00
2022-10-01T19:42:49.064Z,100.00
2022-10-01T19:45:26.062Z,100.00
2022-10-01T19:48:20.707Z,100.00
2022-10-01T19:50:56.502Z,100.00
2022-10-01T19:53:29.055Z,100.00
2022-10-01T19:56:00.549Z,100.00
2022-10-01T19:58:27.651Z,100.00
2022-10-01T20:00:57.812Z,100.00
2022-10-01T20:03:39.741Z,100.00
2022-10-01T20:06:13.518Z,100.00
2022-10-01T20:08:49.810Z,100.00
2022-10-01T20:11:26.863Z,100.00
2022-10-01T20:14:28.736Z,100.00
2022-10-01T20:16:55.376Z,100.00
2022-10-01T20:19:35.618Z,100.00
2022-10-01T20:23:00.805Z,100.00
2022-10-01T20:25:48.752Z,100.00
2022-10-01T20:28:27.417Z,100.00
2022-10-01T20:31:16.050Z,100.00
2022-10-01T20:33:47.270Z,100.00
2022-10-01T20:36:25.828Z,100.00
2022-10-01T20:39:05.857Z,100.00
2022-10-01T20:41:42.637Z,100.00
2022-10-01T20:44:16.992Z,100.00
2022-10-01T20:46:49.236Z,100.00
2022-10-01T20:49:30.725Z,100.00
2022-10-01T20:52:35.325Z,100.00
2022-10-01T20:55:18.214Z,100.00
2022-10-01T20:57:50.347Z,100.00
2022-10-01T21:00:21.403Z,100.00
2022-10-01T21:03:16.617Z,100.00
2022-10-01T21:05:49.357Z,100.00
2022-10-01T21:08:45.012Z,100.00
2022-10-01T21:11:21.937Z,100.00
2022-10-01T21:14:03.492Z,100.00
2022-10-01T21:16:45.401Z,100.00
2022-10-01T21:19:37.103Z,100.00
2022-10-01T21:22:33.234Z,100.00
2022-10-01T21:25:29.887Z,100.00
2022-10-01T21:28:21.853Z,100.00
2022-10-01T21:31:16.290Z,99.42
2022-10-01T21:33:57.275Z,99.68
2022-10-01T21:36:36.993Z,99.12
2022-10-01T21:39:17.965Z,100.00
2022-10-01T21:42:06.788Z,100.00
2022-10-01T21:44:46.217Z,100.00
2022-10-01T21:47:42.520Z,100.00
2022-10-01T21:50:17.625Z,100.00
2022-10-01T21:53:05.890Z,100.00
2022-10-01T21:55:47.125Z,100.00
2022-10-01T21:58:49.529Z,100.00
2022-10-01T22:01:52.324Z,100.00
2022-10-01T22:04:30.089Z,100.00
2022-10-01T22:07:08.821Z,100.00
2022-10-01T22:09:49.603Z,99.12
2022-10-01T22:12:16.718Z,98.15
2022-10-01T22:14:44.348Z,97.75
2022-10-01T22:17:19.757Z,97.42
2022-10-01T22:19:51.142Z,98.14
2022-10-01T22:22:35.136Z,97.43
2022-10-01T22:25:03.496Z,96.96
2022-10-01T22:27:29.880Z,96.28
2022-10-01T22:30:18.739Z,96.16
2022-10-01T22:33:07.297Z,96.89
2022-10-01T22:35:50.802Z,96.70
2022-10-01T22:38:33.765Z,97.26
2022-10-01T22:41:07.332Z,96.51
2022-10-01T22:43:33.842Z,96.13
2022-10-01T22:46:24.837Z,95.69
2022-10-01T22:49:07.041Z,95.64
2022-10-01T22:52:11.690Z,96.06
2022-10-01T22:54:43.837Z,97.35
2022-10-01T22:57:35.142Z,97.63
2022-10-01T23:00:07.746Z,96.67
2022-10-01T23:02:41.319Z,97.94
2022-10-01T23:05:31.879Z,99.39
2022-10-01T23:08:25.669Z,99.55
2022-10-01T23:11:18.166Z,100.00
2022-10-01T23:14:20.464Z,100.00
2022-10-01T23:17:03.385Z,100.00
2022-10-01T23:19:45.043Z,100.00
2022-10-01T23:22:53.412Z,100.00
2022-10-01T23:25:51.769Z,100.00
2022-10-01T23:28:29.583Z,100.00
2022-10-01T23:31:12.646Z,100.00
2022-10-01T23:34:10.484Z,100.00
2022-10-01T23:36:49.122Z,100.00
2022-10-01T23:39:33.634Z,100.00
2022-10-01T23:42:18.755Z,100.00
2022-10-01T23:45:09.034Z,100.00
2022-10-01T23:47:51.882Z,100.00
2022-10-01T23:50:37.135Z,100.00
2022-10-01T23:53:11.107Z,100.00
2022-10-01T23:55:46.546Z,100.00
2022-10-01T23:58:16.700Z,100.00
